Terminal Aerodrome Forecast
Issued by NWS

Home | Current Version | Previous Version | Text Only | Print | Product List | Glossary On
Versions: 1 2 3 4 5 6 7 8 9 10 11 12 13 14 15
000
FTUS46 KHNX 021139
TAFMCE
TAF
KMCE 021139Z 0212/0312 13005KT P6SM VCSH OVC070
     FM022000 VRB05KT P6SM VCTS BKN050CB
     FM030400 VRB03KT P6SM SCT060=

USA.gov is the U.S. government's official web portal to all federal, state and local government web resources and services.